createdAt,value
2023-02-14T00:00:21.867Z,16.20
2023-02-14T00:10:23.294Z,16.18
2023-02-14T00:20:25.174Z,16.22
2023-02-14T00:30:26.907Z,16.14
2023-02-14T00:40:29.032Z,16.13
2023-02-14T00:50:30.406Z,16.11
2023-02-14T01:00:31.841Z,16.10
2023-02-14T01:10:33.299Z,16.08
2023-02-14T01:20:35.124Z,16.03
2023-02-14T01:30:37.131Z,16.04
2023-02-14T01:40:44.730Z,15.99
2023-02-14T01:50:46.388Z,15.96
2023-02-14T02:00:57.130Z,15.93
2023-02-14T02:10:58.953Z,15.89
2023-02-14T02:21:15.525Z,15.85
2023-02-14T02:31:54.544Z,15.80
2023-02-14T02:42:06.803Z,15.78
2023-02-14T02:52:49.089Z,15.72
2023-02-14T03:03:11.008Z,15.69
2023-02-14T03:13:26.701Z,15.65
2023-02-14T03:23:30.344Z,15.62
2023-02-14T03:33:41.863Z,15.60
2023-02-14T03:43:48.441Z,15.53
2023-02-14T03:53:51.708Z,15.53
2023-02-14T04:03:53.799Z,15.53
2023-02-14T04:13:55.486Z,15.50
2023-02-14T04:23:57.068Z,15.47
2023-02-14T04:33:58.651Z,15.47
2023-02-14T04:44:00.040Z,15.46
2023-02-14T04:54:01.442Z,15.45
2023-02-14T05:04:02.948Z,15.43
2023-02-14T05:14:04.334Z,15.40
2023-02-14T05:24:05.857Z,15.51
2023-02-14T05:34:07.366Z,15.68
2023-02-14T05:44:08.756Z,15.89
2023-02-14T05:54:11.389Z,16.17
2023-02-14T06:04:12.810Z,16.36
2023-02-14T06:14:14.246Z,16.50
2023-02-14T06:24:15.631Z,16.55
2023-02-14T06:34:17.151Z,16.56
2023-02-14T06:44:18.697Z,16.56
2023-02-14T06:54:20.275Z,16.53
2023-02-14T07:04:22.235Z,16.52
2023-02-14T07:14:23.816Z,16.62
2023-02-14T07:24:25.410Z,16.73
2023-02-14T07:34:27.233Z,16.88
2023-02-14T07:44:28.667Z,17.29
2023-02-14T07:54:30.322Z,17.65
2023-02-14T08:04:33.742Z,17.97
2023-02-14T08:14:35.803Z,18.32
2023-02-14T08:24:37.338Z,18.68
2023-02-14T08:34:38.827Z,19.00
2023-02-14T08:44:40.219Z,19.32
2023-02-14T08:54:41.773Z,19.51
2023-02-14T09:04:43.156Z,19.69
2023-02-14T09:14:44.875Z,19.83
2023-02-14T09:24:46.299Z,19.94
2023-02-14T09:35:05.900Z,20.03
2023-02-14T09:45:15.175Z,20.15
2023-02-14T09:55:16.812Z,20.34
2023-02-14T10:05:24.538Z,20.54
2023-02-14T10:15:28.146Z,20.03
2023-02-14T10:25:34.218Z,19.74
2023-02-14T10:35:56.982Z,19.60
2023-02-14T10:46:29.469Z,19.55
2023-02-14T10:56:34.973Z,19.46
2023-02-14T11:06:36.362Z,19.39
2023-02-14T11:16:37.972Z,19.29
2023-02-14T11:26:39.396Z,19.20
2023-02-14T11:36:41.450Z,19.10
2023-02-14T11:46:52.779Z,19.04
2023-02-14T11:56:56.958Z,18.97
2023-02-14T12:07:14.282Z,18.90
2023-02-14T12:17:31.596Z,18.87
2023-02-14T12:27:53.727Z,18.84
2023-02-14T12:38:20.170Z,18.81
2023-02-14T12:48:43.275Z,18.77
2023-02-14T12:58:53.488Z,18.76
2023-02-14T13:09:19.090Z,18.75
2023-02-14T13:20:00.147Z,18.72
2023-02-14T13:30:26.231Z,18.68
2023-02-14T13:40:28.179Z,18.63
2023-02-14T13:50:29.595Z,18.58
2023-02-14T14:00:39.139Z,18.54
2023-02-14T14:10:45.057Z,18.51
2023-02-14T14:20:47.933Z,18.46
2023-02-14T14:30:49.402Z,18.41
2023-02-14T14:40:50.926Z,18.34
2023-02-14T14:50:52.357Z,18.28
2023-02-14T15:00:53.796Z,18.23
2023-02-14T15:11:03.967Z,18.18
2023-02-14T15:21:05.337Z,18.15
2023-02-14T15:31:07.739Z,18.09
2023-02-14T15:41:09.354Z,18.04
2023-02-14T15:51:22.087Z,17.98
2023-02-14T16:01:23.557Z,17.91
2023-02-14T16:11:37.903Z,17.83
2023-02-14T16:21:39.437Z,17.78
2023-02-14T16:32:01.238Z,17.74
2023-02-14T16:42:09.151Z,17.69
2023-02-14T16:52:15.834Z,17.64
2023-02-14T17:02:19.071Z,17.58
2023-02-14T17:12:23.701Z,17.54
2023-02-14T17:22:25.578Z,17.49
2023-02-14T17:32:27.240Z,17.44
2023-02-14T17:42:30.550Z,17.39
2023-02-14T17:52:32.030Z,17.33
2023-02-14T18:02:33.567Z,17.28
2023-02-14T18:12:34.968Z,17.21
2023-02-14T18:22:36.740Z,17.14
2023-02-14T18:32:38.211Z,17.06
2023-02-14T18:42:39.595Z,17.01
2023-02-14T18:52:40.978Z,16.99
2023-02-14T19:02:42.516Z,16.92
2023-02-14T19:12:43.994Z,16.88
2023-02-14T19:22:45.405Z,16.80
2023-02-14T19:32:46.965Z,16.74
2023-02-14T19:42:48.842Z,16.69
2023-02-14T19:52:50.360Z,16.63
2023-02-14T20:02:51.885Z,16.57
2023-02-14T20:12:53.447Z,16.52
2023-02-14T20:22:55.012Z,16.45
2023-02-14T20:32:56.601Z,16.40
2023-02-14T20:42:58.144Z,16.38
2023-02-14T20:52:59.681Z,16.32
2023-02-14T21:03:01.144Z,16.24
2023-02-14T21:13:02.555Z,16.25
2023-02-14T21:23:03.932Z,16.23
2023-02-14T21:33:05.351Z,16.18
2023-02-14T21:43:06.726Z,16.13
2023-02-14T21:53:08.312Z,16.12
2023-02-14T22:03:11.697Z,16.10
2023-02-14T22:13:13.696Z,16.07
2023-02-14T22:23:15.097Z,16.05
2023-02-14T22:33:16.624Z,16.01
2023-02-14T22:43:18.030Z,15.95
2023-02-14T22:53:19.415Z,15.89
2023-02-14T23:03:20.881Z,15.88
2023-02-14T23:13:40.796Z,15.83
2023-02-14T23:23:42.355Z,15.83
2023-02-14T23:33:43.779Z,15.81
2023-02-14T23:43:45.172Z,15.76
2023-02-14T23:53:46.712Z,15.70
